^^
Station Historical Data
Daily Summary for October 26, 2017 Units:  English    Metric   Both
« Previous Day
Next Day »
Daily Weekly Monthly Yearly Custom
  High: Low: Average:
Temperature: 56.4 °F 48.1 °F 53.5 °F
Dew Point: 47.2 °F 37.5 °F 42.5 °F
Humidity: 78% 56% 66%
Wind Speed: 6.0mph 0.0mph 1.6mph
Wind Gust: 15.0mph - -
Wind- - SSW
Pressure: 29.91 in 29.63 in -
Precipitation: 0.00 in    
Historical Graphs
 
 
Tabular Data for October 26, 2017
Time Temperature Dew Point Pressure Wind Wind Speed Wind Gust Humidity Rainfall Rate (Hourly) Conditions
00:09 56.4 °F 40.9 °F 29.68 in North 1.0 mph 4.0 mph 56% 0.00 in BKN
00:19 56.3 °F 41.3 °F 29.68 in Calm   4.0 mph 57% 0.00 in BKN
00:29 56.2 °F 41.2 °F 29.68 in NNE 2.0 mph 4.0 mph 57% 0.00 in BKN
00:39 56.1 °F 41.6 °F 29.68 in Calm   5.0 mph 58% 0.00 in BKN
00:49 56.0 °F 41.4 °F 29.69 in Calm   3.0 mph 58% 0.00 in BKN
00:59 55.9 °F 42.2 °F 29.68 in Calm   3.0 mph 60% 0.00 in BKN
01:09 55.8 °F 42.1 °F 29.70 in Calm   8.0 mph 60% 0.00 in BKN
01:19 55.6 °F 42.4 °F 29.70 in Calm   2.0 mph 61% 0.00 in BKN
01:29 55.5 °F 42.3 °F 29.71 in NW 1.0 mph 5.0 mph 61% 0.00 in BKN
01:39 55.4 °F 42.2 °F 29.68 in North 1.0 mph 3.0 mph 61% 0.00 in BKN
01:49 55.3 °F 42.1 °F 29.69 in NNW 1.0 mph 4.0 mph 61% 0.00 in BKN
01:59 55.2 °F 42.0 °F 29.68 in NNE 1.0 mph 8.0 mph 61% 0.00 in BKN
02:09 55.1 °F 42.7 °F 29.67 in North 1.0 mph 5.0 mph 63% 0.00 in SCT
02:19 54.9 °F 42.9 °F 29.65 in North 2.0 mph 9.0 mph 64% 0.00 in SCT
02:29 54.8 °F 43.7 °F 29.63 in North 1.0 mph 10.0 mph 66% 0.00 in SCT
02:39 54.6 °F 43.9 °F 29.64 in Calm   7.0 mph 67% 0.00 in SCT
02:49 54.5 °F 42.6 °F 29.65 in NNW 1.0 mph 9.0 mph 64% 0.00 in SCT
02:59 54.6 °F 42.7 °F 29.66 in Calm   5.0 mph 64% 0.00 in SCT
03:09 54.4 °F 42.9 °F 29.66 in North 1.0 mph 2.0 mph 65% 0.00 in FEW
03:19 54.2 °F 43.1 °F 29.65 in Calm   4.0 mph 66% 0.00 in FEW
03:29 54.2 °F 43.1 °F 29.66 in Calm   4.0 mph 66% 0.00 in FEW
03:39 54.0 °F 43.3 °F 29.66 in Calm   3.0 mph 67% 0.00 in FEW
03:49 53.7 °F 43.4 °F 29.66 in Calm   2.0 mph 68% 0.00 in FEW
03:59 53.6 °F 43.7 °F 29.66 in Calm   3.0 mph 69% 0.00 in FEW
04:09 53.7 °F 43.4 °F 29.67 in NNW 1.0 mph 4.0 mph 68% 0.00 in SCT
04:19 53.7 °F 43.0 °F 29.66 in NNW 1.0 mph 5.0 mph 67% 0.00 in SCT
04:29 53.7 °F 42.6 °F 29.67 in North 1.0 mph 6.0 mph 66% 0.00 in SCT
04:39 53.6 °F 42.5 °F 29.65 in NNW 2.0 mph 5.0 mph 66% 0.00 in SCT
04:49 53.4 °F 42.7 °F 29.66 in North 1.0 mph 6.0 mph 67% 0.00 in SCT
04:59 53.4 °F 42.7 °F 29.67 in NNE 1.0 mph 5.0 mph 67% 0.00 in SCT
05:09 53.2 °F 42.5 °F 29.65 in NNW 2.0 mph 10.0 mph 67% 0.00 in BKN
05:19 53.0 °F 42.4 °F 29.66 in NNW 2.0 mph 7.0 mph 67% 0.00 in BKN
05:29 53.0 °F 42.7 °F 29.66 in NNW 2.0 mph 5.0 mph 68% 0.00 in BKN
05:39 53.2 °F 42.9 °F 29.66 in NE 1.0 mph 7.0 mph 68% 0.00 in BKN
05:49 53.4 °F 43.5 °F 29.67 in North 1.0 mph 9.0 mph 69% 0.00 in BKN
05:59 53.6 °F 43.3 °F 29.68 in North 2.0 mph 10.0 mph 68% 0.00 in BKN
06:09 53.7 °F 43.4 °F 29.67 in NW 2.0 mph 8.0 mph 68% 0.00 in BKN
06:19 53.7 °F 43.4 °F 29.67 in NNW 3.0 mph 10.0 mph 68% 0.00 in BKN
06:29 53.5 °F 43.6 °F 29.66 in NNE 2.0 mph 8.0 mph 69% 0.00 in BKN
06:39 53.3 °F 43.8 °F 29.66 in NNW 2.0 mph 10.0 mph 70% 0.00 in BKN
06:49 53.0 °F 43.5 °F 29.65 in NNW 2.0 mph 12.0 mph 70% 0.00 in BKN
06:59 52.8 °F 43.3 °F 29.65 in NNW 5.0 mph 10.0 mph 70% 0.00 in BKN
07:09 52.6 °F 43.5 °F 29.64 in NNW 1.0 mph 9.0 mph 71% 0.00 in FEW
07:19 52.5 °F 43.4 °F 29.65 in NW 1.0 mph 10.0 mph 71% 0.00 in FEW
07:29 52.4 °F 43.3 °F 29.66 in NNE 3.0 mph 8.0 mph 71% 0.00 in FEW
07:39 52.4 °F 43.3 °F 29.66 in NW 5.0 mph 10.0 mph 71% 0.00 in FEW
07:50 52.3 °F 43.2 °F 29.67 in NNW 2.0 mph 9.0 mph 71% 0.00 in FEW
07:59 52.5 °F 43.3 °F 29.67 in NNE 2.0 mph 13.0 mph 71% 0.00 in FEW
08:09 52.5 °F 43.4 °F 29.67 in NNW 3.0 mph 9.0 mph 71% 0.00 in BKN
08:19 52.6 °F 43.1 °F 29.67 in North 2.0 mph 12.0 mph 70% 0.00 in BKN
08:29 52.7 °F 43.2 °F 29.67 in NNW 6.0 mph 12.0 mph 70% 0.00 in BKN
08:39 52.8 °F 42.9 °F 29.67 in NNW 3.0 mph 12.0 mph 69% 0.00 in BKN
08:49 52.8 °F 42.9 °F 29.67 in North 1.0 mph 10.0 mph 69% 0.00 in BKN
08:59 52.7 °F 42.8 °F 29.67 in North 3.0 mph 9.0 mph 69% 0.00 in BKN
09:09 52.8 °F 42.9 °F 29.67 in Calm   14.0 mph 69% 0.00 in BKN
09:19 52.9 °F 43.0 °F 29.67 in North 3.0 mph 12.0 mph 69% 0.00 in BKN
09:29 53.1 °F 42.8 °F 29.67 in North 3.0 mph 12.0 mph 68% 0.00 in BKN
09:39 53.5 °F 43.2 °F 29.68 in NW 2.0 mph 12.0 mph 68% 0.00 in BKN
09:49 53.6 °F 42.9 °F 29.68 in NNW 3.0 mph 13.0 mph 67% 0.00 in BKN
09:59 53.7 °F 43.0 °F 29.68 in NNE 2.0 mph 10.0 mph 67% 0.00 in BKN
10:09 53.9 °F 43.2 °F 29.68 in North 6.0 mph 12.0 mph 67% 0.00 in BKN
10:19 54.3 °F 42.8 °F 29.68 in North 2.0 mph 9.0 mph 65% 0.00 in BKN
10:29 54.5 °F 42.9 °F 29.68 in North 2.0 mph 13.0 mph 65% 0.00 in BKN
10:39 54.6 °F 43.1 °F 29.68 in North 2.0 mph 9.0 mph 65% 0.00 in BKN
10:49 54.8 °F 42.9 °F 29.68 in NNW 3.0 mph 14.0 mph 64% 0.00 in BKN
10:59 55.1 °F 43.1 °F 29.68 in NNW 3.0 mph 14.0 mph 64% 0.00 in BKN
11:09 55.2 °F 42.8 °F 29.68 in North 2.0 mph 13.0 mph 63% 0.00 in BKN
11:19 55.4 °F 43.0 °F 29.69 in NW 2.0 mph 9.0 mph 63% 0.00 in BKN
11:30 55.3 °F 42.9 °F 29.69 in NNW 2.0 mph 13.0 mph 63% 0.00 in BKN
11:39 55.2 °F 42.8 °F 29.69 in NNW 3.0 mph 10.0 mph 63% 0.00 in BKN
11:49 55.2 °F 43.2 °F 29.69 in NNW 1.0 mph 7.0 mph 64% 0.00 in BKN
11:59 55.2 °F 43.2 °F 29.69 in SE 1.0 mph 7.0 mph 64% 0.00 in BKN
12:09 55.2 °F 43.2 °F 29.69 in Calm   6.0 mph 64% 0.00 in BKN
12:19 54.9 °F 42.9 °F 29.69 in ESE 2.0 mph 6.0 mph 64% 0.00 in BKN
12:29 54.8 °F 42.9 °F 29.68 in NNE 3.0 mph 7.0 mph 64% 0.00 in BKN
12:39 54.9 °F 43.3 °F 29.68 in Calm   6.0 mph 65% 0.00 in BKN
12:49 54.9 °F 44.1 °F 29.67 in Calm   5.0 mph 67% 0.00 in BKN
12:59 54.3 °F 43.9 °F 29.68 in SSW 2.0 mph 10.0 mph 68% 0.00 in BKN
13:09 53.9 °F 44.0 °F 29.67 in SW 2.0 mph 8.0 mph 69% 0.00 in BKN
13:19 53.7 °F 44.2 °F 29.67 in WSW 1.0 mph 6.0 mph 70% 0.00 in BKN
13:29 53.6 °F 44.0 °F 29.67 in Calm   7.0 mph 70% 0.00 in BKN
13:39 53.4 °F 44.6 °F 29.66 in Calm   5.0 mph 72% 0.00 in BKN
13:49 53.0 °F 45.6 °F 29.66 in SW 1.0 mph 4.0 mph 76% 0.00 in BKN
13:59 52.9 °F 46.2 °F 29.66 in Calm   5.0 mph 78% 0.00 in BKN
14:09 53.4 °F 46.7 °F 29.66 in SSW 2.0 mph 5.0 mph 78% 0.00 in BKN
14:19 53.9 °F 45.8 °F 29.66 in SSW 3.0 mph 6.0 mph 74% 0.00 in BKN
14:29 54.2 °F 45.7 °F 29.67 in South 2.0 mph 8.0 mph 73% 0.00 in BKN
14:39 54.2 °F 45.4 °F 29.67 in SW 1.0 mph 8.0 mph 72% 0.00 in BKN
14:49 54.3 °F 45.1 °F 29.67 in SW 1.0 mph 8.0 mph 71% 0.00 in BKN
14:59 54.2 °F 46.5 °F 29.67 in SW 1.0 mph 7.0 mph 75% 0.00 in BKN
15:09 54.0 °F 47.0 °F 29.68 in SW 1.0 mph 8.0 mph 77% 0.00 in BKN
15:19 53.7 °F 46.7 °F 29.69 in Calm   6.0 mph 77% 0.00 in BKN
15:29 53.6 °F 46.5 °F 29.69 in SSW 1.0 mph 5.0 mph 77% 0.00 in BKN
15:39 53.7 °F 46.3 °F 29.69 in Calm   6.0 mph 76% 0.00 in BKN
15:49 53.8 °F 46.4 °F 29.69 in Calm   3.0 mph 76% 0.00 in BKN
15:59 54.2 °F 46.8 °F 29.69 in SSW 1.0 mph 3.0 mph 76% 0.00 in BKN
16:09 54.3 °F 46.5 °F 29.70 in Calm   3.0 mph 75% 0.00 in BKN
16:19 54.3 °F 46.6 °F 29.70 in Calm   2.0 mph 75% 0.00 in BKN
16:29 54.5 °F 46.4 °F 29.70 in Calm   1.0 mph 74% 0.00 in BKN
16:39 54.8 °F 46.7 °F 29.71 in Calm   2.0 mph 74% 0.00 in BKN
16:49 55.1 °F 47.0 °F 29.71 in Calm   3.0 mph 74% 0.00 in BKN
16:59 55.0 °F 46.9 °F 29.71 in Calm   3.0 mph 74% 0.00 in BKN
17:09 55.0 °F 47.2 °F 29.72 in South 1.0 mph 3.0 mph 75% 0.00 in BKN
17:19 55.1 °F 47.0 °F 29.72 in Calm   5.0 mph 74% 0.00 in BKN
17:29 55.5 °F 44.4 °F 29.73 in SSW 3.0 mph 8.0 mph 66% 0.00 in BKN
17:39 56.0 °F 43.2 °F 29.73 in SSW 5.0 mph 10.0 mph 62% 0.00 in BKN
17:49 56.3 °F 42.1 °F 29.74 in SSW 3.0 mph 12.0 mph 59% 0.00 in BKN
17:59 56.2 °F 41.2 °F 29.75 in South 5.0 mph 12.0 mph 57% 0.00 in BKN
18:09 56.0 °F 40.5 °F 29.75 in SW 3.0 mph 13.0 mph 56% 0.00 in BKN
18:19 55.6 °F 40.6 °F 29.76 in South 3.0 mph 15.0 mph 57% 0.00 in BKN
18:29 55.2 °F 40.6 °F 29.77 in ESE 1.0 mph 6.0 mph 58% 0.00 in BKN
18:39 54.5 °F 40.9 °F 29.77 in ESE 2.0 mph 13.0 mph 60% 0.00 in BKN
18:49 54.1 °F 40.9 °F 29.78 in SE 2.0 mph 5.0 mph 61% 0.00 in BKN
18:59 53.8 °F 40.2 °F 29.79 in SSE 2.0 mph 8.0 mph 60% 0.00 in BKN
19:09 53.4 °F 40.3 °F 29.80 in SE 1.0 mph 6.0 mph 61% 0.00 in SCT
19:19 53.2 °F 39.7 °F 29.81 in SW 5.0 mph 8.0 mph 60% 0.00 in SCT
19:29 53.0 °F 39.5 °F 29.81 in SSW 2.0 mph 12.0 mph 60% 0.00 in SCT
19:39 52.8 °F 39.7 °F 29.82 in North 2.0 mph 9.0 mph 61% 0.00 in SCT
19:49 52.5 °F 39.4 °F 29.82 in SSE 2.0 mph 6.0 mph 61% 0.00 in SCT
19:59 52.2 °F 38.7 °F 29.83 in SSE 1.0 mph 7.0 mph 60% 0.00 in SCT
20:09 52.0 °F 39.0 °F 29.84 in South 3.0 mph 9.0 mph 61% 0.00 in SCT
20:19 51.9 °F 38.9 °F 29.84 in SSW 2.0 mph 8.0 mph 61% 0.00 in SCT
20:29 51.8 °F 38.8 °F 29.84 in South 3.0 mph 9.0 mph 61% 0.00 in SCT
20:39 51.5 °F 38.9 °F 29.85 in SSE 1.0 mph 6.0 mph 62% 0.00 in SCT
20:49 51.4 °F 38.8 °F 29.85 in SSW 1.0 mph 10.0 mph 62% 0.00 in SCT
20:59 51.1 °F 38.9 °F 29.85 in SSW 2.0 mph 10.0 mph 63% 0.00 in SCT
21:09 50.9 °F 38.7 °F 29.86 in SSW 1.0 mph 10.0 mph 63% 0.00 in FEW
21:19 50.8 °F 38.7 °F 29.86 in South 1.0 mph 12.0 mph 63% 0.00 in FEW
21:29 50.6 °F 38.5 °F 29.87 in ESE 1.0 mph 7.0 mph 63% 0.00 in FEW
21:39 50.4 °F 38.3 °F 29.87 in ESE 2.0 mph 7.0 mph 63% 0.00 in FEW
21:49 50.3 °F 37.8 °F 29.88 in SSE 3.0 mph 8.0 mph 62% 0.00 in FEW
21:59 50.2 °F 37.7 °F 29.89 in South 1.0 mph 10.0 mph 62% 0.00 in FEW
22:09 50.0 °F 37.9 °F 29.89 in SSE 3.0 mph 9.0 mph 63% 0.00 in CLR
22:19 49.9 °F 37.8 °F 29.89 in SE 3.0 mph 9.0 mph 63% 0.00 in CLR
22:29 49.6 °F 37.9 °F 29.90 in SSW 1.0 mph 7.0 mph 64% 0.00 in CLR
22:49 49.2 °F 37.5 °F 29.90 in SSW 3.0 mph 9.0 mph 64% 0.00 in CLR
22:59 48.9 °F 37.7 °F 29.90 in SSW 5.0 mph 8.0 mph 65% 0.00 in CLR
23:09 48.7 °F 37.9 °F 29.90 in SSW 1.0 mph 7.0 mph 66% 0.00 in CLR
23:19 48.5 °F 37.7 °F 29.90 in SSW 1.0 mph 8.0 mph 66% 0.00 in CLR
23:29 48.2 °F 37.8 °F 29.90 in South 2.0 mph 7.0 mph 67% 0.00 in CLR
23:39 48.1 °F 37.7 °F 29.91 in SSW 1.0 mph 8.0 mph 67% 0.00 in CLR
23:49 48.1 °F 37.7 °F 29.90 in SW 2.0 mph 8.0 mph 67% 0.00 in CLR
23:59 48.1 °F 37.7 °F 29.91 in SSW 5.0 mph 7.0 mph 67% 0.00 in CLR
TarryTown NY Weather
Compliments of Weather Underground - 1.75 mb